sensor_id;sensor_type;location;lat;lon;timestamp;pressure;altitude;pressure_sealevel;temperature;humidity
27643;BME280;15053;48.618;10.024;2023-06-10T00:02:01;93956.38;;;19.21;56.06
27643;BME280;15053;48.618;10.024;2023-06-10T00:04:27;93958.81;;;19.11;56.04
27643;BME280;15053;48.618;10.024;2023-06-10T00:06:54;93957.56;;;19.05;56.49
27643;BME280;15053;48.618;10.024;2023-06-10T00:09:21;93953.16;;;18.93;56.55
27643;BME280;15053;48.618;10.024;2023-06-10T00:11:49;93967.81;;;18.91;56.88
27643;BME280;15053;48.618;10.024;2023-06-10T00:14:15;93958.63;;;18.84;57.33
27643;BME280;15053;48.618;10.024;2023-06-10T00:16:42;93960.38;;;18.77;57.72
27643;BME280;15053;48.618;10.024;2023-06-10T00:19:11;93966.69;;;18.72;58.05
27643;BME280;15053;48.618;10.024;2023-06-10T00:21:40;93963.53;;;18.67;57.92
27643;BME280;15053;48.618;10.024;2023-06-10T00:24:08;93963.13;;;18.65;58.56
27643;BME280;15053;48.618;10.024;2023-06-10T00:26:39;93967.97;;;18.63;58.43
27643;BME280;15053;48.618;10.024;2023-06-10T00:29:07;93966.78;;;18.60;58.95
27643;BME280;15053;48.618;10.024;2023-06-10T00:31:35;93961.78;;;18.55;59.19
27643;BME280;15053;48.618;10.024;2023-06-10T00:34:02;93966.63;;;18.53;59.17
27643;BME280;15053;48.618;10.024;2023-06-10T00:36:30;93956.09;;;18.53;59.43
27643;BME280;15053;48.618;10.024;2023-06-10T00:38:57;93958.31;;;18.51;59.77
27643;BME280;15053;48.618;10.024;2023-06-10T00:41:23;93964.69;;;18.50;59.54
27643;BME280;15053;48.618;10.024;2023-06-10T00:43:50;93961.28;;;18.50;59.97
27643;BME280;15053;48.618;10.024;2023-06-10T00:46:17;93967.31;;;18.50;59.96
27643;BME280;15053;48.618;10.024;2023-06-10T00:48:45;93956.09;;;18.53;60.27
27643;BME280;15053;48.618;10.024;2023-06-10T00:51:11;93957.59;;;18.54;60.03
27643;BME280;15053;48.618;10.024;2023-06-10T00:53:39;93960.31;;;18.58;60.19
27643;BME280;15053;48.618;10.024;2023-06-10T00:56:07;93956.22;;;18.60;60.19
27643;BME280;15053;48.618;10.024;2023-06-10T00:58:34;93958.53;;;18.62;60.47
27643;BME280;15053;48.618;10.024;2023-06-10T01:01:02;93955.53;;;18.63;60.59
27643;BME280;15053;48.618;10.024;2023-06-10T01:03:30;93955.53;;;18.63;60.21
27643;BME280;15053;48.618;10.024;2023-06-10T01:06:06;93955.53;;;18.63;60.49
27643;BME280;15053;48.618;10.024;2023-06-10T01:08:58;93963.03;;;18.61;60.46
27643;BME280;15053;48.618;10.024;2023-06-10T01:11:34;93959.56;;;18.57;60.69
27643;BME280;15053;48.618;10.024;2023-06-10T01:14:03;93960.69;;;18.56;60.70
27643;BME280;15053;48.618;10.024;2023-06-10T01:16:31;93956.91;;;18.57;60.77
27643;BME280;15053;48.618;10.024;2023-06-10T01:18:58;93951.63;;;18.57;60.81
27643;BME280;15053;48.618;10.024;2023-06-10T01:21:26;93958.44;;;18.58;60.96
27643;BME280;15053;48.618;10.024;2023-06-10T01:23:54;93959.22;;;18.59;60.71
27643;BME280;15053;48.618;10.024;2023-06-10T01:26:25;93961.88;;;18.59;60.94
27643;BME280;15053;48.618;10.024;2023-06-10T01:28:58;93950.72;;;18.50;61.00
27643;BME280;15053;48.618;10.024;2023-06-10T01:34:16;93959.03;;;18.52;61.29
27643;BME280;15053;48.618;10.024;2023-06-10T01:36:46;93957.53;;;18.51;61.12
27643;BME280;15053;48.618;10.024;2023-06-10T01:39:19;93963.91;;;18.50;61.17
27643;BME280;15053;48.618;10.024;2023-06-10T01:41:48;93959.66;;;18.45;61.40
27643;BME280;15053;48.618;10.024;2023-06-10T01:44:22;93963.66;;;18.39;61.59
27643;BME280;15053;48.618;10.024;2023-06-10T01:46:49;93948.69;;;18.27;61.81
27643;BME280;15053;48.618;10.024;2023-06-10T01:49:16;93951.00;;;18.29;61.90
27643;BME280;15053;48.618;10.024;2023-06-10T01:51:43;93957.78;;;18.30;61.89
27643;BME280;15053;48.618;10.024;2023-06-10T01:54:09;93961.09;;;18.27;62.03
27643;BME280;15053;48.618;10.024;2023-06-10T01:56:36;93959.59;;;18.26;61.97
27643;BME280;15053;48.618;10.024;2023-06-10T01:59:02;93956.16;;;18.25;62.17
27643;BME280;15053;48.618;10.024;2023-06-10T02:01:29;93953.34;;;18.18;62.07
27643;BME280;15053;48.618;10.024;2023-06-10T02:03:55;93957.69;;;18.11;62.50
27643;BME280;15053;48.618;10.024;2023-06-10T02:06:22;93954.22;;;18.07;62.80
27643;BME280;15053;48.618;10.024;2023-06-10T02:08:49;93954.81;;;18.00;62.74
27643;BME280;15053;48.618;10.024;2023-06-10T02:11:15;93955.16;;;17.99;62.88
27643;BME280;15053;48.618;10.024;2023-06-10T02:13:42;93965.25;;;17.97;63.22
27643;BME280;15053;48.618;10.024;2023-06-10T02:16:09;93945.72;;;17.98;63.13
27643;BME280;15053;48.618;10.024;2023-06-10T02:18:41;93953.63;;;17.98;63.33
27643;BME280;15053;48.618;10.024;2023-06-10T02:21:09;93951.00;;;17.98;63.54
27643;BME280;15053;48.618;10.024;2023-06-10T02:23:36;93953.63;;;17.98;63.53
27643;BME280;15053;48.618;10.024;2023-06-10T02:26:03;93949.91;;;17.99;63.54
27643;BME280;15053;48.618;10.024;2023-06-10T02:28:29;93949.13;;;17.98;63.74
27643;BME280;15053;48.618;10.024;2023-06-10T02:30:57;93958.47;;;17.96;64.18
27643;BME280;15053;48.618;10.024;2023-06-10T02:33:26;93950.13;;;17.94;64.37
27643;BME280;15053;48.618;10.024;2023-06-10T02:35:54;93949.97;;;17.87;64.57
27643;BME280;15053;48.618;10.024;2023-06-10T02:38:22;93954.56;;;17.90;64.88
27643;BME280;15053;48.618;10.024;2023-06-10T02:40:49;93961.38;;;17.91;65.00
27643;BME280;15053;48.618;10.024;2023-06-10T02:43:15;93957.63;;;17.92;64.91
27643;BME280;15053;48.618;10.024;2023-06-10T02:45:43;93954.56;;;17.90;64.89
27643;BME280;15053;48.618;10.024;2023-06-10T02:48:10;93954.97;;;17.92;65.31
27643;BME280;15053;48.618;10.024;2023-06-10T02:50:37;93950.81;;;17.91;65.25
27643;BME280;15053;48.618;10.024;2023-06-10T02:53:28;93958.38;;;17.92;65.40
27643;BME280;15053;48.618;10.024;2023-06-10T02:56:02;93962.56;;;17.93;65.29
27643;BME280;15053;48.618;10.024;2023-06-10T02:58:29;93965.09;;;17.90;65.54
27643;BME280;15053;48.618;10.024;2023-06-10T03:00:56;93964.31;;;17.89;65.62
27643;BME280;15053;48.618;10.024;2023-06-10T03:03:23;93962.03;;;17.88;65.78
27643;BME280;15053;48.618;10.024;2023-06-10T03:06:00;93964.59;;;17.84;65.82
27643;BME280;15053;48.618;10.024;2023-06-10T03:08:27;93962.38;;;17.86;65.79
27643;BME280;15053;48.618;10.024;2023-06-10T03:10:55;93968.00;;;17.85;65.94
27643;BME280;15053;48.618;10.024;2023-06-10T03:13:23;93965.59;;;17.80;66.16
27643;BME280;15053;48.618;10.024;2023-06-10T03:15:50;93974.50;;;17.75;65.93
27643;BME280;15053;48.618;10.024;2023-06-10T03:18:19;93971.03;;;17.71;66.31
27643;BME280;15053;48.618;10.024;2023-06-10T03:20:47;93984.88;;;17.68;66.24
27643;BME280;15053;48.618;10.024;2023-06-10T03:23:14;93983.47;;;17.58;66.63
27643;BME280;15053;48.618;10.024;2023-06-10T03:25:42;93978.47;;;17.53;66.66
27643;BME280;15053;48.618;10.024;2023-06-10T03:28:12;93983.84;;;17.45;66.71
27643;BME280;15053;48.618;10.024;2023-06-10T03:30:40;93983.75;;;17.41;67.12
27643;BME280;15053;48.618;10.024;2023-06-10T03:33:06;93975.00;;;17.37;67.12
27643;BME280;15053;48.618;10.024;2023-06-10T03:35:33;93983.66;;;17.38;67.29
27643;BME280;15053;48.618;10.024;2023-06-10T03:38:02;93983.97;;;17.36;67.21
27643;BME280;15053;48.618;10.024;2023-06-10T03:40:29;93986.97;;;17.35;67.35
27643;BME280;15053;48.618;10.024;2023-06-10T03:42:58;93989.16;;;17.33;67.39
27643;BME280;15053;48.618;10.024;2023-06-10T03:45:25;93990.59;;;17.30;67.43
27643;BME280;15053;48.618;10.024;2023-06-10T03:47:56;93991.34;;;17.31;67.51
27643;BME280;15053;48.618;10.024;2023-06-10T03:50:27;93994.34;;;17.29;67.46
27643;BME280;15053;48.618;10.024;2023-06-10T03:52:54;93996.97;;;17.29;67.77
27643;BME280;15053;48.618;10.024;2023-06-10T03:55:23;94000.44;;;17.33;67.90
27643;BME280;15053;48.618;10.024;2023-06-10T03:57:50;94005.81;;;17.37;67.68
27643;BME280;15053;48.618;10.024;2023-06-10T04:00:18;94006.69;;;17.41;67.73
27643;BME280;15053;48.618;10.024;2023-06-10T04:02:47;94005.91;;;17.40;67.91
27643;BME280;15053;48.618;10.024;2023-06-10T04:05:36;94010.31;;;17.36;68.11
27643;BME280;15053;48.618;10.024;2023-06-10T04:08:03;94012.28;;;17.39;68.08
27643;BME280;15053;48.618;10.024;2023-06-10T04:10:29;94009.75;;;17.43;68.20
27643;BME280;15053;48.618;10.024;2023-06-10T04:12:56;94017.41;;;17.48;67.98
27643;BME280;15053;48.618;10.024;2023-06-10T04:15:26;94006.34;;;17.54;68.08
27643;BME280;15053;48.618;10.024;2023-06-10T04:17:52;94005.41;;;17.62;68.05
27643;BME280;15053;48.618;10.024;2023-06-10T04:20:23;94004.09;;;17.68;67.72
27643;BME280;15053;48.618;10.024;2023-06-10T04:22:50;94012.16;;;17.76;67.85
27643;BME280;15053;48.618;10.024;2023-06-10T04:25:18;94016.84;;;17.82;67.70
27643;BME280;15053;48.618;10.024;2023-06-10T04:27:47;94013.97;;;17.87;67.79
27643;BME280;15053;48.618;10.024;2023-06-10T04:30:16;94024.63;;;17.91;67.64
27643;BME280;15053;48.618;10.024;2023-06-10T04:32:43;94013.88;;;17.99;67.70
27643;BME280;15053;48.618;10.024;2023-06-10T04:35:15;94020.91;;;18.07;67.27
27643;BME280;15053;48.618;10.024;2023-06-10T04:37:43;94019.09;;;18.11;67.17
27643;BME280;15053;48.618;10.024;2023-06-10T04:40:10;94017.75;;;18.17;67.45
27643;BME280;15053;48.618;10.024;2023-06-10T04:42:37;94018.16;;;18.19;67.17
27643;BME280;15053;48.618;10.024;2023-06-10T04:45:04;94026.25;;;18.26;66.99
27643;BME280;15053;48.618;10.024;2023-06-10T04:47:31;94021.16;;;18.34;66.86
27643;BME280;15053;48.618;10.024;2023-06-10T04:50:01;94023.09;;;18.37;66.80
27643;BME280;15053;48.618;10.024;2023-06-10T04:52:28;94018.34;;;18.42;66.85
27643;BME280;15053;48.618;10.024;2023-06-10T04:54:57;94026.00;;;18.47;66.66
27643;BME280;15053;48.618;10.024;2023-06-10T04:57:24;94031.03;;;18.52;66.86
27643;BME280;15053;48.618;10.024;2023-06-10T04:59:52;94027.81;;;18.59;66.50
27643;BME280;15053;48.618;10.024;2023-06-10T05:02:19;94028.13;;;18.57;67.02
27643;BME280;15053;48.618;10.024;2023-06-10T05:04:46;94031.63;;;18.61;66.96
27643;BME280;15053;48.618;10.024;2023-06-10T05:07:12;94031.47;;;18.70;66.55
27643;BME280;15053;48.618;10.024;2023-06-10T05:09:39;94030.41;;;18.74;66.35
27643;BME280;15053;48.618;10.024;2023-06-10T05:12:06;94026.00;;;18.78;66.55
27643;BME280;15053;48.618;10.024;2023-06-10T05:14:33;94031.34;;;18.82;66.75
27643;BME280;15053;48.618;10.024;2023-06-10T05:16:59;94030.66;;;18.85;66.52
27643;BME280;15053;48.618;10.024;2023-06-10T05:19:26;94027.84;;;18.94;66.78
27643;BME280;15053;48.618;10.024;2023-06-10T05:21:53;94031.06;;;19.03;66.44
27643;BME280;15053;48.618;10.024;2023-06-10T05:24:20;94036.84;;;19.08;66.29
27643;BME280;15053;48.618;10.024;2023-06-10T05:26:46;94038.69;;;19.08;66.62
27643;BME280;15053;48.618;10.024;2023-06-10T05:29:14;94045.66;;;19.16;66.37
27643;BME280;15053;48.618;10.024;2023-06-10T05:31:42;94040.09;;;19.21;66.00
27643;BME280;15053;48.618;10.024;2023-06-10T05:34:08;94039.09;;;19.25;66.01
27643;BME280;15053;48.618;10.024;2023-06-10T05:36:35;94039.59;;;19.31;65.92
27643;BME280;15053;48.618;10.024;2023-06-10T05:39:01;94040.78;;;19.33;66.04
27643;BME280;15053;48.618;10.024;2023-06-10T05:41:28;94043.06;;;19.35;66.14
27643;BME280;15053;48.618;10.024;2023-06-10T05:43:54;94043.06;;;19.35;66.37
27643;BME280;15053;48.618;10.024;2023-06-10T05:46:21;94043.94;;;19.39;66.03
27643;BME280;15053;48.618;10.024;2023-06-10T05:48:48;94043.97;;;19.42;66.02
27643;BME280;15053;48.618;10.024;2023-06-10T05:51:14;94040.25;;;19.43;66.47
27643;BME280;15053;48.618;10.024;2023-06-10T05:53:41;94045.59;;;19.47;66.44
27643;BME280;15053;48.618;10.024;2023-06-10T05:56:07;94049.75;;;19.48;66.64
27643;BME280;15053;48.618;10.024;2023-06-10T05:58:34;94048.94;;;19.44;66.72
27643;BME280;15053;48.618;10.024;2023-06-10T06:01:00;94046.28;;;19.44;66.70
27643;BME280;15053;48.618;10.024;2023-06-10T06:03:27;94044.06;;;19.46;67.02
27643;BME280;15053;48.618;10.024;2023-06-10T06:05:55;94044.13;;;19.50;66.88
27643;BME280;15053;48.618;10.024;2023-06-10T06:08:21;94049.75;;;19.48;67.06
27643;BME280;15053;48.618;10.024;2023-06-10T06:10:49;94039.34;;;19.55;67.29
27643;BME280;15053;48.618;10.024;2023-06-10T06:13:16;94047.28;;;19.55;67.35
27643;BME280;15053;48.618;10.024;2023-06-10T06:15:43;94058.66;;;19.59;67.33
27643;BME280;15053;48.618;10.024;2023-06-10T06:18:09;94054.56;;;19.62;67.23
27643;BME280;15053;48.618;10.024;2023-06-10T06:20:36;94056.59;;;19.68;67.23
27643;BME280;15053;48.618;10.024;2023-06-10T06:23:02;94054.50;;;19.77;67.20
27643;BME280;15053;48.618;10.024;2023-06-10T06:25:29;94064.44;;;19.84;66.73
27643;BME280;15053;48.618;10.024;2023-06-10T06:27:55;94058.53;;;19.90;66.51
27643;BME280;15053;48.618;10.024;2023-06-10T06:30:22;94050.31;;;19.95;66.43
27643;BME280;15053;48.618;10.024;2023-06-10T06:32:48;94051.16;;;19.99;66.26
27643;BME280;15053;48.618;10.024;2023-06-10T06:35:15;94054.19;;;20.01;65.93
27643;BME280;15053;48.618;10.024;2023-06-10T06:37:42;94056.19;;;20.08;66.42
27643;BME280;15053;48.618;10.024;2023-06-10T06:40:24;94053.75;;;20.19;66.60
27643;BME280;15053;48.618;10.024;2023-06-10T06:42:50;94058.13;;;20.30;66.00
27643;BME280;15053;48.618;10.024;2023-06-10T06:45:36;94057.13;;;20.38;65.49
27643;BME280;15053;48.618;10.024;2023-06-10T06:48:02;94063.31;;;20.46;65.11
27643;BME280;15053;48.618;10.024;2023-06-10T06:50:29;94059.97;;;20.49;64.81
27643;BME280;15053;48.618;10.024;2023-06-10T06:52:56;94066.47;;;20.55;64.54
27643;BME280;15053;48.618;10.024;2023-06-10T06:55:22;94064.34;;;20.64;64.75
27643;BME280;15053;48.618;10.024;2023-06-10T06:57:49;94057.25;;;20.68;64.11
27643;BME280;15053;48.618;10.024;2023-06-10T07:00:16;94060.69;;;20.72;64.41
27643;BME280;15053;48.618;10.024;2023-06-10T07:02:42;94061.63;;;20.83;64.67
27643;BME280;15053;48.618;10.024;2023-06-10T07:05:09;94072.03;;;20.95;64.18
27643;BME280;15053;48.618;10.024;2023-06-10T07:07:36;94068.38;;;21.03;64.32
27643;BME280;15053;48.618;10.024;2023-06-10T07:10:02;94062.84;;;21.12;63.85
27643;BME280;15053;48.618;10.024;2023-06-10T07:12:29;94068.19;;;21.15;63.58
27643;BME280;15053;48.618;10.024;2023-06-10T07:14:57;94070.53;;;21.21;63.50
27643;BME280;15053;48.618;10.024;2023-06-10T07:17:23;94066.03;;;21.25;63.28
27643;BME280;15053;48.618;10.024;2023-06-10T07:19:50;94072.91;;;21.29;63.15
27643;BME280;15053;48.618;10.024;2023-06-10T07:22:17;94066.94;;;21.36;63.02
27643;BME280;15053;48.618;10.024;2023-06-10T07:24:44;94067.78;;;21.40;62.65
27643;BME280;15053;48.618;10.024;2023-06-10T07:27:10;94070.84;;;21.45;62.79
27643;BME280;15053;48.618;10.024;2023-06-10T07:29:37;94067.16;;;21.50;62.35
27643;BME280;15053;48.618;10.024;2023-06-10T07:32:03;94069.84;;;21.53;61.97
27643;BME280;15053;48.618;10.024;2023-06-10T07:34:30;94071.75;;;21.56;62.17
27643;BME280;15053;48.618;10.024;2023-06-10T07:36:57;94071.84;;;21.63;62.00
27643;BME280;15053;48.618;10.024;2023-06-10T07:39:23;94073.41;;;21.68;61.76
27643;BME280;15053;48.618;10.024;2023-06-10T07:41:50;94075.31;;;21.67;61.83
27643;BME280;15053;48.618;10.024;2023-06-10T07:44:18;94073.53;;;21.75;61.53
27643;BME280;15053;48.618;10.024;2023-06-10T07:46:44;94071.75;;;21.86;61.65
27643;BME280;15053;48.618;10.024;2023-06-10T07:49:11;94070.03;;;21.97;60.90
27643;BME280;15053;48.618;10.024;2023-06-10T07:51:38;94064.06;;;22.07;60.21
27643;BME280;15053;48.618;10.024;2023-06-10T07:54:04;94070.22;;;22.18;59.77
27643;BME280;15053;48.618;10.024;2023-06-10T07:56:31;94068.06;;;22.27;59.49
27643;BME280;15053;48.618;10.024;2023-06-10T07:58:58;94071.16;;;22.37;58.51
27643;BME280;15053;48.618;10.024;2023-06-10T08:01:24;94075.00;;;22.43;57.64
27643;BME280;15053;48.618;10.024;2023-06-10T08:03:51;94074.31;;;22.49;57.13
27643;BME280;15053;48.618;10.024;2023-06-10T08:06:17;94072.13;;;22.58;56.42
27643;BME280;15053;48.618;10.024;2023-06-10T08:08:44;94081.66;;;22.63;55.87
27643;BME280;15053;48.618;10.024;2023-06-10T08:11:13;94068.41;;;22.66;55.22
27643;BME280;15053;48.618;10.024;2023-06-10T08:13:39;94077.97;;;22.71;55.64
27643;BME280;15053;48.618;10.024;2023-06-10T08:16:06;94070.09;;;22.85;54.95
27643;BME280;15053;48.618;10.024;2023-06-10T08:18:33;94065.59;;;22.92;54.78
27643;BME280;15053;48.618;10.024;2023-06-10T08:21:00;94075.56;;;23.06;54.20
27643;BME280;15053;48.618;10.024;2023-06-10T08:23:26;94066.13;;;23.12;53.60
27643;BME280;15053;48.618;10.024;2023-06-10T08:25:53;94069.56;;;23.16;53.92
27643;BME280;15053;48.618;10.024;2023-06-10T08:28:19;94073.03;;;23.24;53.80
27643;BME280;15053;48.618;10.024;2023-06-10T08:30:46;94065.91;;;23.38;53.63
27643;BME280;15053;48.618;10.024;2023-06-10T08:33:12;94066.72;;;23.49;53.39
27643;BME280;15053;48.618;10.024;2023-06-10T08:35:39;94065.25;;;23.56;53.35
27643;BME280;15053;48.618;10.024;2023-06-10T08:38:05;94057.72;;;23.72;52.89
27643;BME280;15053;48.618;10.024;2023-06-10T08:40:33;94057.75;;;23.79;52.75
27643;BME280;15053;48.618;10.024;2023-06-10T08:43:07;94060.75;;;23.74;52.71
27643;BME280;15053;48.618;10.024;2023-06-10T08:45:36;94057.34;;;23.77;52.53
27643;BME280;15053;48.618;10.024;2023-06-10T08:48:03;94059.25;;;23.73;52.41
27643;BME280;15053;48.618;10.024;2023-06-10T08:50:37;94057.34;;;23.77;52.86
27643;BME280;15053;48.618;10.024;2023-06-10T08:53:05;94052.88;;;23.95;52.38
27643;BME280;15053;48.618;10.024;2023-06-10T08:55:52;94058.25;;;24.13;51.82
27643;BME280;15053;48.618;10.024;2023-06-10T08:58:20;94057.84;;;24.00;52.16
27643;BME280;15053;48.618;10.024;2023-06-10T09:00:47;94064.34;;;24.10;52.01
27643;BME280;15053;48.618;10.024;2023-06-10T09:03:13;94060.94;;;24.16;51.98
27643;BME280;15053;48.618;10.024;2023-06-10T09:05:41;94067.00;;;24.10;51.79
27643;BME280;15053;48.618;10.024;2023-06-10T09:08:08;94064.66;;;24.01;52.07
27643;BME280;15053;48.618;10.024;2023-06-10T09:10:35;94048.00;;;24.11;52.38
27643;BME280;15053;48.618;10.024;2023-06-10T09:13:02;94050.31;;;24.20;51.74
27643;BME280;15053;48.618;10.024;2023-06-10T09:15:29;94052.94;;;24.13;51.72
27643;BME280;15053;48.618;10.024;2023-06-10T09:17:55;94063.56;;;24.05;51.75
27643;BME280;15053;48.618;10.024;2023-06-10T09:20:23;94068.81;;;23.88;51.67
27643;BME280;15053;48.618;10.024;2023-06-10T09:22:49;94065.81;;;24.00;52.57
27643;BME280;15053;48.618;10.024;2023-06-10T09:25:16;94051.84;;;24.38;52.26
27643;BME280;15053;48.618;10.024;2023-06-10T09:30:34;94062.19;;;24.89;51.14
27643;BME280;15053;48.618;10.024;2023-06-10T09:33:03;94064.06;;;24.75;50.49
27643;BME280;15053;48.618;10.024;2023-06-10T09:35:36;94072.78;;;24.54;51.06
27643;BME280;15053;48.618;10.024;2023-06-10T09:38:02;94058.34;;;24.44;50.66
27643;BME280;15053;48.618;10.024;2023-06-10T09:40:29;94069.75;;;24.48;50.73
27643;BME280;15053;48.618;10.024;2023-06-10T09:42:59;94068.63;;;24.71;50.37
27643;BME280;15053;48.618;10.024;2023-06-10T09:45:30;94064.84;;;24.93;49.69
27643;BME280;15053;48.618;10.024;2023-06-10T09:48:00;94059.50;;;25.14;48.58
27643;BME280;15053;48.618;10.024;2023-06-10T09:50:27;94060.22;;;25.39;47.68
27643;BME280;15053;48.618;10.024;2023-06-10T09:52:54;94059.44;;;25.56;47.17
27643;BME280;15053;48.618;10.024;2023-06-10T09:55:21;94058.31;;;25.50;47.53
27643;BME280;15053;48.618;10.024;2023-06-10T09:57:49;94058.31;;;25.50;47.54
27643;BME280;15053;48.618;10.024;2023-06-10T10:00:16;94053.66;;;25.72;47.35
27643;BME280;15053;48.618;10.024;2023-06-10T10:02:47;94045.66;;;25.75;46.91
27643;BME280;15053;48.618;10.024;2023-06-10T10:05:16;94050.53;;;25.95;46.55
27643;BME280;15053;48.618;10.024;2023-06-10T10:07:44;94052.25;;;26.33;45.83
27643;BME280;15053;48.618;10.024;2023-06-10T10:10:12;94049.84;;;26.53;44.94
27643;BME280;15053;48.618;10.024;2023-06-10T10:12:40;94050.88;;;26.69;44.83
27643;BME280;15053;48.618;10.024;2023-06-10T10:15:11;94049.94;;;26.90;44.56
27643;BME280;15053;48.618;10.024;2023-06-10T10:17:39;94050.94;;;27.10;43.91
27643;BME280;15053;48.618;10.024;2023-06-10T10:20:08;94051.19;;;27.23;43.44
27643;BME280;15053;48.618;10.024;2023-06-10T10:22:39;94046.13;;;27.32;43.38
27643;BME280;15053;48.618;10.024;2023-06-10T10:25:30;94053.59;;;27.14;42.51
27643;BME280;15053;48.618;10.024;2023-06-10T10:28:19;94046.38;;;27.07;41.99
27643;BME280;15053;48.618;10.024;2023-06-10T10:30:51;94039.41;;;27.17;42.36
27643;BME280;15053;48.618;10.024;2023-06-10T10:33:20;94052.53;;;27.01;42.23
27643;BME280;15053;48.618;10.024;2023-06-10T10:35:49;94053.47;;;26.76;42.38
27643;BME280;15053;48.618;10.024;2023-06-10T10:38:16;94057.34;;;26.72;42.89
27643;BME280;15053;48.618;10.024;2023-06-10T10:40:44;94052.84;;;26.58;43.40
27643;BME280;15053;48.618;10.024;2023-06-10T10:43:11;94056.06;;;26.32;43.71
27643;BME280;15053;48.618;10.024;2023-06-10T10:45:38;94047.81;;;26.05;44.07
27643;BME280;15053;48.618;10.024;2023-06-10T10:48:08;94052.47;;;25.87;44.63
27643;BME280;15053;48.618;10.024;2023-06-10T10:50:36;94043.56;;;26.11;44.40
27643;BME280;15053;48.618;10.024;2023-06-10T10:53:04;94045.22;;;26.57;43.66
27643;BME280;15053;48.618;10.024;2023-06-10T10:55:31;94037.31;;;26.94;42.88
27643;BME280;15053;48.618;10.024;2023-06-10T10:58:05;94030.97;;;27.22;41.97
27643;BME280;15053;48.618;10.024;2023-06-10T11:00:34;94026.13;;;27.47;42.13
27643;BME280;15053;48.618;10.024;2023-06-10T11:03:06;94036.16;;;27.73;41.09
27643;BME280;15053;48.618;10.024;2023-06-10T11:05:42;94023.69;;;27.60;41.23
27643;BME280;15053;48.618;10.024;2023-06-10T11:08:11;94017.94;;;27.61;40.65
27643;BME280;15053;48.618;10.024;2023-06-10T11:10:39;94028.44;;;27.45;40.58
27643;BME280;15053;48.618;10.024;2023-06-10T11:13:08;94032.91;;;27.14;40.72
27643;BME280;15053;48.618;10.024;2023-06-10T11:15:46;94029.47;;;27.17;40.52
27643;BME280;15053;48.618;10.024;2023-06-10T11:18:24;94021.81;;;27.57;39.85
27643;BME280;15053;48.618;10.024;2023-06-10T11:20:55;94017.59;;;27.89;39.81
27643;BME280;15053;48.618;10.024;2023-06-10T11:26:18;94016.09;;;28.45;39.12
27643;BME280;15053;48.618;10.024;2023-06-10T11:31:46;94025.97;;;27.91;39.21
27643;BME280;15053;48.618;10.024;2023-06-10T11:34:21;94015.25;;;27.61;40.35
27643;BME280;15053;48.618;10.024;2023-06-10T11:36:49;94021.53;;;28.12;40.35
27643;BME280;15053;48.618;10.024;2023-06-10T11:39:17;94026.13;;;28.38;39.68
27643;BME280;15053;48.618;10.024;2023-06-10T11:41:45;94024.81;;;28.49;39.65
27643;BME280;15053;48.618;10.024;2023-06-10T11:44:13;94022.00;;;28.33;39.28
27643;BME280;15053;48.618;10.024;2023-06-10T11:46:45;94012.50;;;27.98;39.74
27643;BME280;15053;48.618;10.024;2023-06-10T11:49:12;94021.47;;;27.55;40.39
27643;BME280;15053;48.618;10.024;2023-06-10T11:51:39;94028.22;;;27.25;40.57
27643;BME280;15053;48.618;10.024;2023-06-10T11:54:10;94028.44;;;27.04;41.03
27643;BME280;15053;48.618;10.024;2023-06-10T11:56:36;94027.06;;;26.89;41.13
27643;BME280;15053;48.618;10.024;2023-06-10T11:59:07;94029.84;;;26.71;41.15
27643;BME280;15053;48.618;10.024;2023-06-10T12:01:36;94034.50;;;26.60;41.57
27643;BME280;15053;48.618;10.024;2023-06-10T12:04:08;94027.78;;;26.42;42.23
27643;BME280;15053;48.618;10.024;2023-06-10T12:09:27;94036.28;;;26.22;43.24
27643;BME280;15053;48.618;10.024;2023-06-10T12:11:59;94031.75;;;26.16;43.52
27643;BME280;15053;48.618;10.024;2023-06-10T12:14:58;94032.91;;;26.08;43.47
27643;BME280;15053;48.618;10.024;2023-06-10T12:20:25;94022.19;;;26.73;43.93
27643;BME280;15053;48.618;10.024;2023-06-10T12:22:52;94012.88;;;27.33;42.22
27643;BME280;15053;48.618;10.024;2023-06-10T12:25:25;94010.81;;;27.47;41.18
27643;BME280;15053;48.618;10.024;2023-06-10T12:27:54;94007.09;;;27.72;40.15
27643;BME280;15053;48.618;10.024;2023-06-10T12:30:22;94011.81;;;27.91;39.17
27643;BME280;15053;48.618;10.024;2023-06-10T12:32:50;94006.34;;;28.32;38.91
27643;BME280;15053;48.618;10.024;2023-06-10T12:35:23;93999.53;;;28.77;38.48
27643;BME280;15053;48.618;10.024;2023-06-10T12:38:04;94007.91;;;29.25;38.19
27643;BME280;15053;48.618;10.024;2023-06-10T12:40:38;94005.25;;;29.65;36.93
27643;BME280;15053;48.618;10.024;2023-06-10T12:43:06;94002.69;;;29.38;37.67
27643;BME280;15053;48.618;10.024;2023-06-10T12:45:37;94009.19;;;28.71;38.47
27643;BME280;15053;48.618;10.024;2023-06-10T12:48:11;94007.59;;;28.24;39.22
27643;BME280;15053;48.618;10.024;2023-06-10T12:50:40;94011.53;;;27.85;40.25
27643;BME280;15053;48.618;10.024;2023-06-10T12:53:08;94005.72;;;27.90;40.69
27643;BME280;15053;48.618;10.024;2023-06-10T12:55:34;93996.31;;;28.09;40.33
27643;BME280;15053;48.618;10.024;2023-06-10T12:58:01;93996.06;;;28.27;40.11
27643;BME280;15053;48.618;10.024;2023-06-10T13:00:30;93996.28;;;28.39;39.38
27643;BME280;15053;48.618;10.024;2023-06-10T13:02:59;93999.38;;;28.07;39.43
27643;BME280;15053;48.618;10.024;2023-06-10T13:05:27;93994.28;;;28.17;39.86
27643;BME280;15053;48.618;10.024;2023-06-10T13:07:54;93994.00;;;28.61;38.93
27643;BME280;15053;48.618;10.024;2023-06-10T13:10:21;93994.59;;;28.95;38.46
27643;BME280;15053;48.618;10.024;2023-06-10T13:12:52;94001.97;;;29.14;37.95
27643;BME280;15053;48.618;10.024;2023-06-10T13:15:19;94001.34;;;28.84;38.66